Time,TemperatureF,DewpointF,PressureIn,WindDirection,WindDirectionDegrees,WindSpeedMPH,WindSpeedGustMPH,Humidity,HourlyPrecipIn,Conditions,Clouds,dailyrainin,SoftwareType,DateUTC
2013-07-12 00:00:00,78.0,74.0,29.92,West,260,3.0,5.0,86,-99.99,,,-99.99,,2013-07-12 05:00:00,
2013-07-12 00:32:00,78.0,74.0,29.92,West,260,3.0,5.0,86,-99.99,,,-99.99,,2013-07-12 05:32:00,
2013-07-12 00:42:00,78.0,74.0,29.92,West,260,3.0,5.0,86,-99.99,,,-99.99,,2013-07-12 05:42:00,
2013-07-12 00:53:00,78.0,74.0,29.92,West,260,3.0,5.0,86,-99.99,,,-99.99,,2013-07-12 05:53:00,
2013-07-12 01:00:00,78.0,75.0,29.91,NW,310,12.0,13.0,89,-99.99,,,-99.99,,2013-07-12 06:00:00,
2013-07-12 01:32:00,78.0,75.0,29.91,NW,310,12.0,13.0,89,-99.99,,,-99.99,,2013-07-12 06:32:00,
2013-07-12 01:42:00,78.0,75.0,29.91,NW,310,12.0,13.0,89,-99.99,,,-99.99,,2013-07-12 06:42:00,
2013-07-12 01:52:00,78.0,75.0,29.91,NW,310,12.0,13.0,89,-99.99,,,-99.99,,2013-07-12 06:52:00,
2013-07-12 02:00:00,78.0,74.0,29.88,NW,310,8.0,9.0,88,-99.99,,,-99.99,,2013-07-12 07:00:00,
2013-07-12 02:32:00,78.0,74.0,29.88,NW,310,8.0,9.0,88,-99.99,,,-99.99,,2013-07-12 07:32:00,
2013-07-12 02:43:00,78.0,74.0,29.88,NW,310,8.0,9.0,88,-99.99,,,-99.99,,2013-07-12 07:43:00,
2013-07-12 02:52:00,78.0,74.0,29.88,NW,310,8.0,9.0,88,-99.99,,,-99.99,,2013-07-12 07:52:00,
2013-07-12 04:00:00,78.0,72.0,29.88,North,360,10.0,12.0,82,-99.99,,,-99.99,,2013-07-12 09:00:00,
2013-07-12 04:32:00,78.0,72.0,29.88,North,360,10.0,12.0,82,-99.99,,,-99.99,,2013-07-12 09:32:00,
2013-07-12 04:42:00,78.0,72.0,29.88,North,360,10.0,12.0,82,-99.99,,,-99.99,,2013-07-12 09:42:00,
2013-07-12 04:52:00,78.0,72.0,29.88,North,360,10.0,12.0,82,-99.99,,,-99.99,,2013-07-12 09:52:00,
2013-07-12 05:00:00,77.0,73.0,29.89,North,360,10.0,12.0,86,-99.99,,,-99.99,,2013-07-12 10:00:00,
2013-07-12 05:33:00,77.0,73.0,29.89,North,360,10.0,12.0,86,-99.99,,,-99.99,,2013-07-12 10:33:00,
2013-07-12 05:42:00,77.0,73.0,29.89,North,360,10.0,12.0,86,-99.99,,,-99.99,,2013-07-12 10:42:00,
2013-07-12 05:52:00,77.0,73.0,29.89,North,360,10.0,12.0,86,-99.99,,,-99.99,,2013-07-12 10:52:00,
2013-07-12 06:00:00,78.0,72.0,29.90,NNW,340,13.0,14.0,82,-99.99,,,-99.99,,2013-07-12 11:00:00,
2013-07-12 06:32:00,78.0,72.0,29.90,NNW,340,13.0,14.0,82,-99.99,,,-99.99,,2013-07-12 11:32:00,
2013-07-12 06:43:00,78.0,72.0,29.90,NNW,340,13.0,14.0,82,-99.99,,,-99.99,,2013-07-12 11:43:00,
2013-07-12 06:52:00,78.0,72.0,29.90,NNW,340,13.0,14.0,82,-99.99,,,-99.99,,2013-07-12 11:52:00,
2013-07-12 07:00:00,76.0,72.0,29.91,North,360,15.0,16.0,87,-99.99,,,-99.99,,2013-07-12 12:00:00,
2013-07-12 07:32:00,76.0,72.0,29.91,North,360,15.0,16.0,87,-99.99,,,-99.99,,2013-07-12 12:32:00,
2013-07-12 07:43:00,76.0,72.0,29.91,North,360,15.0,16.0,87,-99.99,,,-99.99,,2013-07-12 12:43:00,
2013-07-12 07:52:00,76.0,72.0,29.91,North,360,15.0,16.0,87,-99.99,,,-99.99,,2013-07-12 12:52:00,
2013-07-12 08:00:00,77.0,72.0,29.91,North,350,8.0,9.0,86,-99.99,,,-99.99,,2013-07-12 13:00:00,
2013-07-12 08:32:00,77.0,72.0,29.91,North,350,8.0,9.0,86,-99.99,,,-99.99,,2013-07-12 13:32:00,
2013-07-12 08:43:00,77.0,72.0,29.91,North,350,8.0,9.0,86,-99.99,,,-99.99,,2013-07-12 13:43:00,
2013-07-12 08:53:00,77.0,72.0,29.91,North,350,8.0,9.0,86,-99.99,,,-99.99,,2013-07-12 13:53:00,
2013-07-12 09:00:00,78.0,72.0,29.91,North,350,8.0,9.0,80,-99.99,,,-99.99,,2013-07-12 14:00:00,
2013-07-12 09:32:00,78.0,72.0,29.91,North,350,8.0,9.0,80,-99.99,,,-99.99,,2013-07-12 14:32:00,
2013-07-12 09:43:00,78.0,72.0,29.91,North,350,8.0,9.0,80,-99.99,,,-99.99,,2013-07-12 14:43:00,
2013-07-12 09:53:00,78.0,72.0,29.91,North,350,8.0,9.0,80,-99.99,,,-99.99,,2013-07-12 14:53:00,
2013-07-12 10:00:00,79.0,72.0,29.91,NNE,20,7.0,7.0,81,-99.99,,,-99.99,,2013-07-12 15:00:00,
2013-07-12 10:33:00,79.0,72.0,29.91,NNE,20,7.0,7.0,81,-99.99,,,-99.99,,2013-07-12 15:33:00,
2013-07-12 10:43:00,79.0,72.0,29.91,NNE,20,7.0,7.0,81,-99.99,,,-99.99,,2013-07-12 15:43:00,
2013-07-12 10:52:00,79.0,72.0,29.91,NNE,20,7.0,7.0,81,-99.99,,,-99.99,,2013-07-12 15:52:00,
2013-07-12 11:00:00,79.0,73.0,29.91,NE,50,7.0,8.0,81,-99.99,,,-99.99,,2013-07-12 16:00:00,
2013-07-12 11:32:00,79.0,73.0,29.91,NE,50,7.0,8.0,81,-99.99,,,-99.99,,2013-07-12 16:32:00,
2013-07-12 11:42:00,79.0,73.0,29.91,NE,50,7.0,8.0,81,-99.99,,,-99.99,,2013-07-12 16:42:00,
2013-07-12 12:00:00,80.0,73.0,29.90,NNE,30,2.0,3.0,79,-99.99,,,-99.99,,2013-07-12 17:00:00,
2013-07-12 12:32:00,80.0,73.0,29.90,NNE,30,2.0,3.0,79,-99.99,,,-99.99,,2013-07-12 17:32:00,
2013-07-12 12:52:00,80.0,73.0,29.90,NNE,30,2.0,3.0,79,-99.99,,,-99.99,,2013-07-12 17:52:00,
2013-07-12 13:22:00,81.0,73.0,29.90,South,170,5.0,6.0,75,-99.99,,,-99.99,,2013-07-12 18:22:00,
2013-07-12 13:32:00,81.0,73.0,29.90,South,170,5.0,6.0,75,-99.99,,,-99.99,,2013-07-12 18:32:00,
2013-07-12 13:43:00,81.0,73.0,29.90,South,170,5.0,6.0,75,-99.99,,,-99.99,,2013-07-12 18:43:00,
2013-07-12 13:52:00,81.0,73.0,29.90,South,170,5.0,6.0,75,-99.99,,,-99.99,,2013-07-12 18:52:00,
2013-07-12 14:00:00,82.0,73.0,29.88,South,170,6.0,8.0,75,-99.99,,,-99.99,,2013-07-12 19:00:00,
2013-07-12 14:32:00,82.0,73.0,29.88,South,170,6.0,8.0,75,-99.99,,,-99.99,,2013-07-12 19:32:00,
2013-07-12 14:43:00,82.0,73.0,29.88,South,170,6.0,8.0,75,-99.99,,,-99.99,,2013-07-12 19:43:00,
2013-07-12 15:00:00,83.0,73.0,29.87,South,190,9.0,12.0,72,-99.99,,,-99.99,,2013-07-12 20:00:00,
2013-07-12 15:32:00,83.0,73.0,29.87,South,190,9.0,12.0,72,-99.99,,,-99.99,,2013-07-12 20:32:00,
2013-07-12 15:42:00,83.0,73.0,29.87,South,190,9.0,12.0,72,-99.99,,,-99.99,,2013-07-12 20:42:00,
2013-07-12 15:52:00,83.0,73.0,29.87,South,190,9.0,12.0,72,-99.99,,,-99.99,,2013-07-12 20:52:00,
2013-07-12 17:00:00,83.0,73.0,29.86,South,190,6.0,8.0,72,-99.99,,,-99.99,,2013-07-12 22:00:00,
2013-07-12 17:42:00,83.0,73.0,29.86,South,190,6.0,8.0,72,-99.99,,,-99.99,,2013-07-12 22:42:00,
2013-07-12 17:52:00,83.0,73.0,29.86,South,190,6.0,8.0,72,-99.99,,,-99.99,,2013-07-12 22:52:00,
2013-07-12 18:00:00,82.0,72.0,29.86,WNW,290,5.0,6.0,72,-99.99,,,-99.99,,2013-07-12 23:00:00,
2013-07-12 18:32:00,82.0,72.0,29.86,WNW,290,5.0,6.0,72,-99.99,,,-99.99,,2013-07-12 23:32:00,
2013-07-12 18:42:00,82.0,72.0,29.86,WNW,290,5.0,6.0,72,-99.99,,,-99.99,,2013-07-12 23:42:00,
2013-07-12 18:52:00,82.0,72.0,29.86,WNW,290,5.0,6.0,72,-99.99,,,-99.99,,2013-07-12 23:52:00,
2013-07-12 19:00:00,82.0,72.0,29.87,WSW,240,3.0,6.0,71,-99.99,,,-99.99,,2013-07-13 00:00:00,
2013-07-12 19:21:00,82.0,72.0,29.87,WSW,240,3.0,6.0,71,-99.99,,,-99.99,,2013-07-13 00:21:00,
2013-07-12 19:32:00,82.0,72.0,29.87,WSW,240,3.0,6.0,71,-99.99,,,-99.99,,2013-07-13 00:32:00,
2013-07-12 19:42:00,82.0,72.0,29.87,WSW,240,3.0,6.0,71,-99.99,,,-99.99,,2013-07-13 00:42:00,
2013-07-12 19:52:00,82.0,72.0,29.87,WSW,240,3.0,6.0,71,-99.99,,,-99.99,,2013-07-13 00:52:00,
2013-07-12 20:00:00,82.0,74.0,29.86,WSW,250,5.0,8.0,76,-99.99,,,-99.99,,2013-07-13 01:00:00,
2013-07-12 20:32:00,82.0,74.0,29.86,WSW,250,5.0,8.0,76,-99.99,,,-99.99,,2013-07-13 01:32:00,
2013-07-12 20:42:00,82.0,74.0,29.86,WSW,250,5.0,8.0,76,-99.99,,,-99.99,,2013-07-13 01:42:00,
2013-07-12 20:52:00,82.0,74.0,29.86,WSW,250,5.0,8.0,76,-99.99,,,-99.99,,2013-07-13 01:52:00,
2013-07-12 21:00:00,81.0,74.0,29.87,West,280,6.0,7.0,79,-99.99,,,-99.99,,2013-07-13 02:00:00,
2013-07-12 22:00:00,81.0,76.0,29.88,NW,310,3.0,6.0,83,-99.99,,,-99.99,,2013-07-13 03:00:00,
2013-07-12 22:32:00,81.0,76.0,29.88,NW,310,3.0,6.0,83,-99.99,,,-99.99,,2013-07-13 03:32:00,
2013-07-12 22:42:00,81.0,76.0,29.88,NW,310,3.0,6.0,83,-99.99,,,-99.99,,2013-07-13 03:42:00,
2013-07-12 22:52:00,81.0,76.0,29.88,NW,310,3.0,6.0,83,-99.99,,,-99.99,,2013-07-13 03:52:00,
2013-07-12 23:00:00,79.0,74.0,29.90,North,10,9.0,9.0,83,-99.99,,,-99.99,,2013-07-13 04:00:00,
2013-07-12 23:22:00,79.0,74.0,29.90,North,10,9.0,9.0,83,-99.99,,,-99.99,,2013-07-13 04:22:00,
2013-07-12 23:32:00,79.0,74.0,29.90,North,10,9.0,9.0,83,-99.99,,,-99.99,,2013-07-13 04:32:00,
2013-07-12 23:43:00,79.0,74.0,29.90,North,10,9.0,9.0,83,-99.99,,,-99.99,,2013-07-13 04:43:00,
2013-07-12 23:52:00,79.0,74.0,29.90,North,10,9.0,9.0,83,-99.99,,,-99.99,,2013-07-13 04:52:00,